Cape Lookout, NC current weather conditions

sailwx.info

Wind from 280 at 5 knots gusting 6

Air temperature 15.7° C
Dewpoint 15.7° C

Last reported at 2020-Jan-25 14:00 UTC.
Time now 2020-Jan-25 15:16 UTC

Location: N 34°37' W 076°31'.
View on Google Maps.

See reports from other nearby stations

  
Tides and Currents Weather Stations Pressure Air Temp Water Temp Dewpoint Dewpoint Depression Visibility Wind Speed Wind Dir Waves Ship Positions
date/time (UTC)wind fromknots sea level pressurealtimeterstation pressurevisibilityair tempwater tempwave heightnotes
2020-Jan-25 14:00 280 5 gusting 6 15.7
2020-Jan-25 13:00 190 14 gusting 17 17.3
2020-Jan-25 12:00 170 25 gusting 27 16.7
2020-Jan-25 11:00 190 15 gusting 19 16.8
2020-Jan-25 10:00 170 22 gusting 25 16.9
2020-Jan-25 09:00 170 20 gusting 20 16.8
2020-Jan-25 08:00 150 20 gusting 21 16.8
2020-Jan-25 07:00 150 17 gusting 18 16.6
2020-Jan-25 06:00 150 18 gusting 20 16.9
2020-Jan-25 05:00 150 17 gusting 18 16.8
2020-Jan-25 04:00 150 13 gusting 13 16.7
2020-Jan-25 03:00 140 14 gusting 15 16.5
2020-Jan-25 02:00 140 14 gusting 17 16.6
2020-Jan-25 01:00 140 14 gusting 15 16.5
2020-Jan-25 00:00 130 14 gusting 15 16.3
2020-Jan-24 23:00 140 13 gusting 13 16.3
2020-Jan-24 22:00 120 12 gusting 13 16.2
2020-Jan-24 21:00 130 9 gusting 11 16.2
2020-Jan-24 20:00 110 8 gusting 9 15.8
2020-Jan-24 19:00 050 11 gusting 12 14.9
2020-Jan-24 18:00 090 13 gusting 13 15.5
2020-Jan-24 17:00 090 14 gusting 14 16.1
2020-Jan-24 16:00 090 5 gusting 6 16.1
2020-Jan-24 15:00 360 4 gusting 4 13.5
2020-Jan-24 14:00 020 5 gusting 6 11.7
2020-Jan-24 13:00 360 6 gusting 6 10.2
2020-Jan-24 12:00 020 6 gusting 6 10.5
2020-Jan-24 11:00 350 6 gusting 6 10.1
2020-Jan-24 10:00 010 7 gusting 9 10.4
2020-Jan-24 09:00 020 7 gusting 8 10.3
2020-Jan-24 08:00 030 12 gusting 13 10.9
2020-Jan-24 07:00 020 9 gusting 12 10.2
2020-Jan-24 06:00 010 8 gusting 11 9.9
2020-Jan-24 05:00 040 11 gusting 12 10.3
2020-Jan-24 04:00 030 9 gusting 11 9.4
2020-Jan-24 03:00 360 7 gusting 9 9.1
2020-Jan-24 02:00 020 9 gusting 13 10.2
2020-Jan-24 01:00 020 11 gusting 13 9.9
2020-Jan-24 00:00 010 13 gusting 14 10.1
2020-Jan-23 23:00 010 15 gusting 19 11.0
2020-Jan-23 22:00 010 17 gusting 20 12.1
2020-Jan-23 21:00 020 12 gusting 13 13.0
2020-Jan-23 20:00 020 8 gusting 12 12.3
2020-Jan-23 19:00 010 12 gusting 15 12.4
2020-Jan-23 18:00 030 18 gusting 20 11.5
2020-Jan-23 17:00 020 13 gusting 17 11.0
2020-Jan-23 16:00 010 13 gusting 14 8.8
2020-Jan-23 15:00 010 13 gusting 14 7.9